PWSweather.com
Personal Weather Stations
Station Observations
KWIPARKF
Flambeau River State Forest, Park Falls, WI 54552

Flambeau River State ForestPark Falls, WI 54552

Lat: 45.81943, Lon: -90.61676

Elevation: 1476

Station Type: Davis Vantage Pro2 Plus

www.flambeauforestweather.com

High Low Average
Temperature 38.7°F3.7°C 20.6°F-6.3°C 29.5°F-1.4°C
Dew Point 25.7°F-3.5°C 15.7°F-9.1°C 19.2°F-7.1°C
Winds 10.4 mph 16.7 kmh Calm Calm 1.0 mph NW1.6 kmh NW
Wind Gusts 23.0 mph37.0 kmh -- 3.0 mph4.8 kmh
Humidity 88% 42% 67%
Pressure 30.29 in1025.7 mb 30.19 in1022.4 mb -
Precipitation 0.00 in0.0 mm - -
Hour Temp Dew Point Humidity Winds Wind Gusts Pressure Precip Precip Rate Daily Precip Total
12:00 AM 32.4°F0.2°C 27.5°F-2.5°C 82% Calm Calm -- 30.21 in1023.0 mb - 0.00 in0.0 mm 0.00 in0.0 mm
12:10 AM 32.4°F0.2°C 27.5°F-2.5°C 82% Calm Calm -- 30.20 in1022.7 mb - 0.00 in0.0 mm 0.00 in0.0 mm
12:20 AM 32.3°F0.2°C 27.1°F-2.7°C 81% Calm Calm -- 30.20 in1022.7 mb - 0.00 in0.0 mm 0.00 in0.0 mm
12:30 AM 32.2°F0.1°C 26.4°F-3.1°C 79% Calm Calm -- 30.20 in1022.7 mb - 0.00 in0.0 mm 0.00 in0.0 mm
12:40 AM 31.9°F-0.1°C 26.1°F-3.3°C 79% 2.3 mph NW3.7 kmh NW 9.2 mph14.8 kmh 30.20 in1022.7 mb - 0.00 in0.0 mm 0.00 in0.0 mm
12:50 AM 31.6°F-0.2°C 25.5°F-3.6°C 78% Calm Calm 1.2 mph1.9 kmh 30.21 in1023.0 mb - 0.00 in0.0 mm 0.00 in0.0 mm
01:00 AM 31.3°F-0.4°C 25.5°F-3.6°C 79% Calm Calm -- 30.20 in1022.7 mb - 0.00 in0.0 mm 0.00 in0.0 mm
01:10 AM 31.2°F-0.4°C 25.4°F-3.7°C 79% Calm Calm -- 30.20 in1022.7 mb - 0.00 in0.0 mm 0.00 in0.0 mm
01:20 AM 31.2°F-0.4°C 25.4°F-3.7°C 79% Calm Calm 1.2 mph1.9 kmh 30.20 in1022.7 mb - 0.00 in0.0 mm 0.00 in0.0 mm
01:30 AM 31.1°F-0.5°C 25.7°F-3.5°C 80% 1.2 mph NW1.9 kmh NW 3.5 mph5.6 kmh 30.20 in1022.7 mb - 0.00 in0.0 mm 0.00 in0.0 mm
01:40 AM 31.0°F-0.6°C 25.6°F-3.6°C 80% Calm Calm 1.2 mph1.9 kmh 30.20 in1022.7 mb - 0.00 in0.0 mm 0.00 in0.0 mm
01:50 AM 30.8°F-0.7°C 25.4°F-3.7°C 80% Calm Calm -- 30.20 in1022.7 mb - 0.00 in0.0 mm 0.00 in0.0 mm
02:00 AM 30.6°F-0.8°C 25.5°F-3.6°C 81% Calm Calm -- 30.20 in1022.7 mb - 0.00 in0.0 mm 0.00 in0.0 mm
02:10 AM 30.4°F-0.9°C 25.3°F-3.7°C 81% Calm Calm -- 30.20 in1022.7 mb - 0.00 in0.0 mm 0.00 in0.0 mm
02:20 AM 30.2°F-1.0°C 25.1°F-3.8°C 81% Calm Calm -- 30.20 in1022.7 mb - 0.00 in0.0 mm 0.00 in0.0 mm
02:30 AM 30.0°F-1.1°C 25.2°F-3.8°C 82% Calm Calm -- 30.20 in1022.7 mb - 0.00 in0.0 mm 0.00 in0.0 mm
02:40 AM 29.9°F-1.2°C 25.1°F-3.8°C 82% Calm Calm 1.2 mph1.9 kmh 30.19 in1022.4 mb - 0.00 in0.0 mm 0.00 in0.0 mm
02:50 AM 29.7°F-1.3°C 24.9°F-3.9°C 82% Calm Calm -- 30.19 in1022.4 mb - 0.00 in0.0 mm 0.00 in0.0 mm
03:00 AM 29.3°F-1.5°C 24.2°F-4.3°C 81% Calm Calm -- 30.19 in1022.4 mb - 0.00 in0.0 mm 0.00 in0.0 mm
03:10 AM 28.7°F-1.8°C 23.9°F-4.5°C 82% Calm Calm -- 30.19 in1022.4 mb - 0.00 in0.0 mm 0.00 in0.0 mm
03:20 AM 28.2°F-2.1°C 23.4°F-4.8°C 82% Calm Calm -- 30.19 in1022.4 mb - 0.00 in0.0 mm 0.00 in0.0 mm
03:30 AM 27.9°F-2.3°C 23.4°F-4.8°C 83% Calm Calm -- 30.19 in1022.4 mb - 0.00 in0.0 mm 0.00 in0.0 mm
03:40 AM 27.6°F-2.4°C 23.1°F-4.9°C 83% Calm Calm -- 30.19 in1022.4 mb - 0.00 in0.0 mm 0.00 in0.0 mm
03:50 AM 27.2°F-2.7°C 22.7°F-5.2°C 83% Calm Calm -- 30.19 in1022.4 mb - 0.00 in0.0 mm 0.00 in0.0 mm
04:00 AM 27.0°F-2.8°C 22.5°F-5.3°C 83% Calm Calm -- 30.19 in1022.4 mb - 0.00 in0.0 mm 0.00 in0.0 mm
04:10 AM 26.7°F-2.9°C 22.5°F-5.3°C 84% Calm Calm -- 30.19 in1022.4 mb - 0.00 in0.0 mm 0.00 in0.0 mm
04:20 AM 26.5°F-3.1°C 22.3°F-5.4°C 84% Calm Calm -- 30.19 in1022.4 mb - 0.00 in0.0 mm 0.00 in0.0 mm
04:30 AM 26.2°F-3.2°C 22.0°F-5.6°C 84% Calm Calm -- 30.19 in1022.4 mb - 0.00 in0.0 mm 0.00 in0.0 mm
04:40 AM 26.0°F-3.3°C 21.5°F-5.8°C 83% Calm Calm -- 30.19 in1022.4 mb - 0.00 in0.0 mm 0.00 in0.0 mm
04:50 AM 25.6°F-3.6°C 21.4°F-5.9°C 84% Calm Calm 4.6 mph7.4 kmh 30.19 in1022.4 mb - 0.00 in0.0 mm 0.00 in0.0 mm
05:00 AM 25.2°F-3.8°C 21.1°F-6.1°C 84% Calm Calm -- 30.19 in1022.4 mb - 0.00 in0.0 mm 0.00 in0.0 mm
05:10 AM 24.9°F-3.9°C 21.0°F-6.1°C 85% Calm Calm -- 30.19 in1022.4 mb - 0.00 in0.0 mm 0.00 in0.0 mm
05:20 AM 24.7°F-4.1°C 20.8°F-6.2°C 85% Calm Calm -- 30.19 in1022.4 mb - 0.00 in0.0 mm 0.00 in0.0 mm
05:30 AM 24.4°F-4.2°C 20.5°F-6.4°C 85% Calm Calm -- 30.19 in1022.4 mb - 0.00 in0.0 mm 0.00 in0.0 mm
05:40 AM 24.2°F-4.3°C 20.3°F-6.5°C 85% Calm Calm -- 30.19 in1022.4 mb - 0.00 in0.0 mm 0.00 in0.0 mm
05:50 AM 23.9°F-4.5°C 20.0°F-6.7°C 85% Calm Calm -- 30.19 in1022.4 mb - 0.00 in0.0 mm 0.00 in0.0 mm
06:00 AM 23.6°F-4.7°C 19.8°F-6.8°C 85% Calm Calm -- 30.19 in1022.4 mb - 0.00 in0.0 mm 0.00 in0.0 mm
06:10 AM 23.4°F-4.8°C 19.6°F-6.9°C 85% Calm Calm -- 30.20 in1022.7 mb - 0.00 in0.0 mm 0.00 in0.0 mm
06:20 AM 23.1°F-4.9°C 19.3°F-7.1°C 85% Calm Calm -- 30.20 in1022.7 mb - 0.00 in0.0 mm 0.00 in0.0 mm
06:30 AM 22.9°F-5.1°C 19.3°F-7.1°C 86% Calm Calm -- 30.20 in1022.7 mb - 0.00 in0.0 mm 0.00 in0.0 mm
06:40 AM 22.5°F-5.3°C 18.7°F-7.4°C 85% Calm Calm -- 30.20 in1022.7 mb - 0.00 in0.0 mm 0.00 in0.0 mm
06:50 AM 22.2°F-5.4°C 18.7°F-7.4°C 86% Calm Calm -- 30.20 in1022.7 mb - 0.00 in0.0 mm 0.00 in0.0 mm
07:00 AM 22.0°F-5.6°C 18.4°F-7.6°C 86% Calm Calm -- 30.21 in1023.0 mb - 0.00 in0.0 mm 0.00 in0.0 mm
07:10 AM 21.7°F-5.7°C 18.4°F-7.6°C 87% Calm Calm -- 30.21 in1023.0 mb - 0.00 in0.0 mm 0.00 in0.0 mm
07:20 AM 21.4°F-5.9°C 18.1°F-7.7°C 87% Calm Calm -- 30.21 in1023.0 mb - 0.00 in0.0 mm 0.00 in0.0 mm
07:30 AM 21.2°F-6.0°C 17.9°F-7.8°C 87% Calm Calm -- 30.21 in1023.0 mb - 0.00 in0.0 mm 0.00 in0.0 mm
07:40 AM 20.9°F-6.2°C 17.6°F-8.0°C 87% Calm Calm -- 30.21 in1023.0 mb - 0.00 in0.0 mm 0.00 in0.0 mm
07:50 AM 20.7°F-6.3°C 17.4°F-8.1°C 87% Calm Calm -- 30.21 in1023.0 mb - 0.00 in0.0 mm 0.00 in0.0 mm
08:00 AM 20.6°F-6.3°C 17.6°F-8.0°C 88% Calm Calm -- 30.21 in1023.0 mb - 0.00 in0.0 mm 0.00 in0.0 mm
08:10 AM 20.6°F-6.3°C 17.6°F-8.0°C 88% Calm Calm -- 30.22 in1023.4 mb - 0.00 in0.0 mm 0.00 in0.0 mm
08:20 AM 20.8°F-6.2°C 17.8°F-7.9°C 88% Calm Calm -- 30.22 in1023.4 mb - 0.00 in0.0 mm 0.00 in0.0 mm
08:30 AM 20.9°F-6.2°C 17.9°F-7.8°C 88% Calm Calm -- 30.22 in1023.4 mb - 0.00 in0.0 mm 0.00 in0.0 mm
08:40 AM 21.1°F-6.1°C 18.1°F-7.7°C 88% Calm Calm -- 30.22 in1023.4 mb - 0.00 in0.0 mm 0.00 in0.0 mm
08:50 AM 21.5°F-5.8°C 18.5°F-7.5°C 88% Calm Calm -- 30.22 in1023.4 mb - 0.00 in0.0 mm 0.00 in0.0 mm
09:00 AM 21.9°F-5.6°C 18.6°F-7.4°C 87% Calm Calm -- 30.22 in1023.4 mb - 0.00 in0.0 mm 0.00 in0.0 mm
09:10 AM 22.6°F-5.2°C 19.3°F-7.1°C 87% Calm Calm -- 30.22 in1023.4 mb - 0.00 in0.0 mm 0.00 in0.0 mm
09:20 AM 23.5°F-4.7°C 19.6°F-6.9°C 85% Calm Calm -- 30.22 in1023.4 mb - 0.00 in0.0 mm 0.00 in0.0 mm
09:30 AM 25.7°F-3.5°C 20.7°F-6.3°C 81% Calm Calm -- 30.23 in1023.7 mb - 0.00 in0.0 mm 0.00 in0.0 mm
09:40 AM 27.3°F-2.6°C 21.0°F-6.1°C 77% Calm Calm 4.6 mph7.4 kmh 30.23 in1023.7 mb - 0.00 in0.0 mm 0.00 in0.0 mm
09:50 AM 28.0°F-2.2°C 21.1°F-6.1°C 75% 1.2 mph NW1.9 kmh NW 3.5 mph5.6 kmh 30.23 in1023.7 mb - 0.00 in0.0 mm 0.00 in0.0 mm
10:00 AM 28.5°F-1.9°C 21.3°F-5.9°C 74% Calm Calm -- 30.23 in1023.7 mb - 0.00 in0.0 mm 0.00 in0.0 mm
10:10 AM 29.5°F-1.4°C 21.5°F-5.8°C 72% Calm Calm -- 30.23 in1023.7 mb - 0.00 in0.0 mm 0.00 in0.0 mm
10:20 AM 30.4°F-0.9°C 21.8°F-5.7°C 70% Calm Calm 2.3 mph3.7 kmh 30.23 in1023.7 mb - 0.00 in0.0 mm 0.00 in0.0 mm
10:30 AM 31.6°F-0.2°C 22.9°F-5.1°C 70% Calm Calm -- 30.23 in1023.7 mb - 0.00 in0.0 mm 0.00 in0.0 mm
10:40 AM 32.0°F0.0°C 21.5°F-5.8°C 65% Calm Calm 1.2 mph1.9 kmh 30.23 in1023.7 mb - 0.00 in0.0 mm 0.00 in0.0 mm
10:50 AM 32.0°F0.0°C 21.6°F-5.8°C 65% Calm Calm 3.5 mph5.6 kmh 30.23 in1023.7 mb - 0.00 in0.0 mm 0.00 in0.0 mm
11:00 AM 32.8°F0.4°C 21.2°F-6.0°C 62% Calm Calm 2.3 mph3.7 kmh 30.23 in1023.7 mb - 0.00 in0.0 mm 0.00 in0.0 mm
11:10 AM 33.6°F0.9°C 21.2°F-6.0°C 60% 5.8 mph N9.3 kmh N 5.8 mph9.3 kmh 30.22 in1023.4 mb - 0.00 in0.0 mm 0.00 in0.0 mm
11:20 AM 34.0°F1.1°C 21.6°F-5.8°C 60% 1.2 mph N1.9 kmh N 1.2 mph1.9 kmh 30.22 in1023.4 mb - 0.00 in0.0 mm 0.00 in0.0 mm
11:30 AM 32.8°F0.4°C 20.8°F-6.2°C 61% Calm Calm 3.5 mph5.6 kmh 30.22 in1023.4 mb - 0.00 in0.0 mm 0.00 in0.0 mm
11:40 AM 33.3°F0.7°C 20.5°F-6.4°C 59% 4.6 mph N7.4 kmh N 12.7 mph20.4 kmh 30.22 in1023.4 mb - 0.00 in0.0 mm 0.00 in0.0 mm
11:50 AM 35.1°F1.7°C 20.1°F-6.6°C 54% 1.2 mph N1.9 kmh N 1.2 mph1.9 kmh 30.21 in1023.0 mb - 0.00 in0.0 mm 0.00 in0.0 mm
12:00 PM 35.5°F1.9°C 18.2°F-7.7°C 49% 10.4 mph NW16.7 kmh NW 15.0 mph24.1 kmh 30.21 in1023.0 mb - 0.00 in0.0 mm 0.00 in0.0 mm
12:10 PM 36.6°F2.6°C 19.3°F-7.1°C 49% 5.8 mph NNW9.3 kmh NNW 13.8 mph22.2 kmh 30.21 in1023.0 mb - 0.00 in0.0 mm 0.00 in0.0 mm
12:20 PM 37.7°F3.2°C 18.7°F-7.4°C 46% Calm Calm 5.8 mph9.3 kmh 30.21 in1023.0 mb - 0.00 in0.0 mm 0.00 in0.0 mm
12:30 PM 36.2°F2.3°C 17.9°F-7.8°C 47% Calm Calm 2.3 mph3.7 kmh 30.21 in1023.0 mb - 0.00 in0.0 mm 0.00 in0.0 mm
12:40 PM 36.1°F2.3°C 17.8°F-7.9°C 47% 8.1 mph NW13.0 kmh NW 13.8 mph22.2 kmh 30.21 in1023.0 mb - 0.00 in0.0 mm 0.00 in0.0 mm
12:50 PM 37.2°F2.9°C 17.8°F-7.9°C 45% 9.2 mph NNW14.8 kmh NNW 15.0 mph24.1 kmh 30.21 in1023.0 mb - 0.00 in0.0 mm 0.00 in0.0 mm
01:00 PM 35.9°F2.2°C 18.5°F-7.5°C 49% 8.1 mph NW13.0 kmh NW 15.0 mph24.1 kmh 30.22 in1023.4 mb - 0.00 in0.0 mm 0.00 in0.0 mm
01:10 PM 35.7°F2.1°C 18.4°F-7.6°C 49% 4.6 mph N7.4 kmh N 10.4 mph16.7 kmh 30.21 in1023.0 mb - 0.00 in0.0 mm 0.00 in0.0 mm
01:20 PM 36.3°F2.4°C 18.0°F-7.8°C 47% 4.6 mph WNW7.4 kmh WNW 10.4 mph16.7 kmh 30.21 in1023.0 mb - 0.00 in0.0 mm 0.00 in0.0 mm
01:30 PM 36.2°F2.3°C 18.3°F-7.6°C 48% 3.5 mph NNW5.6 kmh NNW 12.7 mph20.4 kmh 30.21 in1023.0 mb - 0.00 in0.0 mm 0.00 in0.0 mm
01:40 PM 35.6°F2.0°C 17.8°F-7.9°C 48% 2.3 mph N3.7 kmh N 6.9 mph11.1 kmh 30.21 in1023.0 mb - 0.00 in0.0 mm 0.00 in0.0 mm
01:50 PM 36.0°F2.2°C 17.7°F-7.9°C 47% 4.6 mph NNW7.4 kmh NNW 12.7 mph20.4 kmh 30.21 in1023.0 mb - 0.00 in0.0 mm 0.00 in0.0 mm
02:00 PM 34.9°F1.6°C 16.2°F-8.8°C 46% 5.8 mph NNW9.3 kmh NNW 11.5 mph18.5 kmh 30.22 in1023.4 mb - 0.00 in0.0 mm 0.00 in0.0 mm
02:10 PM 36.0°F2.2°C 17.2°F-8.2°C 46% 5.8 mph NNW9.3 kmh NNW 19.6 mph31.5 kmh 30.22 in1023.4 mb - 0.00 in0.0 mm 0.00 in0.0 mm
02:20 PM 36.9°F2.7°C 16.5°F-8.6°C 43% 6.9 mph N11.1 kmh N 12.7 mph20.4 kmh 30.21 in1023.0 mb - 0.00 in0.0 mm 0.00 in0.0 mm
02:30 PM 38.7°F3.7°C 18.1°F-7.7°C 43% Calm Calm 2.3 mph3.7 kmh 30.21 in1023.0 mb - 0.00 in0.0 mm 0.00 in0.0 mm
02:40 PM 35.7°F2.1°C 16.9°F-8.4°C 46% 2.3 mph N3.7 kmh N 13.8 mph22.2 kmh 30.22 in1023.4 mb - 0.00 in0.0 mm 0.00 in0.0 mm
02:50 PM 37.4°F3.0°C 16.4°F-8.7°C 42% 10.4 mph NNW16.7 kmh NNW 23.0 mph37.0 kmh 30.22 in1023.4 mb - 0.00 in0.0 mm 0.00 in0.0 mm
03:00 PM 36.7°F2.6°C 17.4°F-8.1°C 45% Calm Calm 1.2 mph1.9 kmh 30.22 in1023.4 mb - 0.00 in0.0 mm 0.00 in0.0 mm
03:10 PM 35.9°F2.2°C 16.1°F-8.8°C 44% 2.3 mph NW3.7 kmh NW 1.2 mph1.9 kmh 30.22 in1023.4 mb - 0.00 in0.0 mm 0.00 in0.0 mm
03:20 PM 35.1°F1.7°C 16.8°F-8.4°C 47% Calm Calm 2.3 mph3.7 kmh 30.23 in1023.7 mb - 0.00 in0.0 mm 0.00 in0.0 mm
03:30 PM 34.4°F1.3°C 16.2°F-8.8°C 47% Calm Calm -- 30.23 in1023.7 mb - 0.00 in0.0 mm 0.00 in0.0 mm
03:40 PM 34.7°F1.5°C 17.0°F-8.3°C 48% Calm Calm -- 30.23 in1023.7 mb - 0.00 in0.0 mm 0.00 in0.0 mm
03:50 PM 34.9°F1.6°C 17.2°F-8.2°C 48% Calm Calm 2.3 mph3.7 kmh 30.23 in1023.7 mb - 0.00 in0.0 mm 0.00 in0.0 mm
04:00 PM 35.8°F2.1°C 16.5°F-8.6°C 45% 1.2 mph NNW1.9 kmh NNW 12.7 mph20.4 kmh 30.23 in1023.7 mb - 0.00 in0.0 mm 0.00 in0.0 mm
04:10 PM 36.9°F2.7°C 17.0°F-8.3°C 44% Calm Calm -- 30.23 in1023.7 mb - 0.00 in0.0 mm 0.00 in0.0 mm
04:20 PM 36.1°F2.3°C 18.3°F-7.6°C 48% Calm Calm 2.3 mph3.7 kmh 30.24 in1024.0 mb - 0.00 in0.0 mm 0.00 in0.0 mm
04:30 PM 37.5°F3.1°C 17.5°F-8.1°C 44% Calm Calm 3.5 mph5.6 kmh 30.24 in1024.0 mb - 0.00 in0.0 mm 0.00 in0.0 mm
04:40 PM 36.3°F2.4°C 17.0°F-8.3°C 45% 4.6 mph NW7.4 kmh NW 3.5 mph5.6 kmh 30.24 in1024.0 mb - 0.00 in0.0 mm 0.00 in0.0 mm
04:50 PM 35.9°F2.2°C 16.6°F-8.6°C 45% Calm Calm -- 30.23 in1023.7 mb - 0.00 in0.0 mm 0.00 in0.0 mm
05:00 PM 35.3°F1.8°C 16.5°F-8.6°C 46% 1.2 mph NNW1.9 kmh NNW 3.5 mph5.6 kmh 30.23 in1023.7 mb - 0.00 in0.0 mm 0.00 in0.0 mm
05:10 PM 33.9°F1.1°C 16.7°F-8.5°C 49% Calm Calm 1.2 mph1.9 kmh 30.24 in1024.0 mb - 0.00 in0.0 mm 0.00 in0.0 mm
05:20 PM 33.7°F0.9°C 16.6°F-8.6°C 49% Calm Calm -- 30.24 in1024.0 mb - 0.00 in0.0 mm 0.00 in0.0 mm
05:30 PM 34.8°F1.6°C 17.1°F-8.3°C 48% Calm Calm -- 30.24 in1024.0 mb - 0.00 in0.0 mm 0.00 in0.0 mm
05:40 PM 33.9°F1.1°C 17.2°F-8.2°C 50% 1.2 mph NNW1.9 kmh NNW 10.4 mph16.7 kmh 30.24 in1024.0 mb - 0.00 in0.0 mm 0.00 in0.0 mm
05:50 PM 33.3°F0.7°C 17.1°F-8.3°C 51% Calm Calm -- 30.25 in1024.4 mb - 0.00 in0.0 mm 0.00 in0.0 mm
06:00 PM 32.9°F0.5°C 17.2°F-8.2°C 52% Calm Calm 1.2 mph1.9 kmh 30.25 in1024.4 mb - 0.00 in0.0 mm 0.00 in0.0 mm
06:10 PM 32.6°F0.3°C 16.0°F-8.9°C 50% 1.2 mph N1.9 kmh N 10.4 mph16.7 kmh 30.25 in1024.4 mb - 0.00 in0.0 mm 0.00 in0.0 mm
06:20 PM 32.0°F0.0°C 17.2°F-8.2°C 54% Calm Calm -- 30.25 in1024.4 mb - 0.00 in0.0 mm 0.00 in0.0 mm
06:30 PM 31.2°F-0.4°C 17.7°F-7.9°C 57% Calm Calm 3.5 mph5.6 kmh 30.25 in1024.4 mb - 0.00 in0.0 mm 0.00 in0.0 mm
06:40 PM 31.0°F-0.6°C 16.7°F-8.5°C 55% Calm Calm 1.2 mph1.9 kmh 30.25 in1024.4 mb - 0.00 in0.0 mm 0.00 in0.0 mm
06:50 PM 30.7°F-0.7°C 16.9°F-8.4°C 56% Calm Calm -- 30.25 in1024.4 mb - 0.00 in0.0 mm 0.00 in0.0 mm
07:00 PM 30.5°F-0.8°C 16.2°F-8.8°C 55% Calm Calm -- 30.25 in1024.4 mb - 0.00 in0.0 mm 0.00 in0.0 mm
07:10 PM 29.7°F-1.3°C 16.7°F-8.5°C 58% Calm Calm -- 30.25 in1024.4 mb - 0.00 in0.0 mm 0.00 in0.0 mm
07:20 PM 29.0°F-1.7°C 15.7°F-9.1°C 57% Calm Calm -- 30.25 in1024.4 mb - 0.00 in0.0 mm 0.00 in0.0 mm
07:30 PM 28.3°F-2.1°C 15.8°F-9.0°C 59% Calm Calm -- 30.25 in1024.4 mb - 0.00 in0.0 mm 0.00 in0.0 mm
07:40 PM 27.9°F-2.3°C 16.2°F-8.8°C 61% Calm Calm -- 30.26 in1024.7 mb - 0.00 in0.0 mm 0.00 in0.0 mm
07:50 PM 27.3°F-2.6°C 16.8°F-8.4°C 64% Calm Calm -- 30.26 in1024.7 mb - 0.00 in0.0 mm 0.00 in0.0 mm
08:00 PM 26.6°F-3.0°C 16.4°F-8.7°C 65% Calm Calm -- 30.26 in1024.7 mb - 0.00 in0.0 mm 0.00 in0.0 mm
08:10 PM 26.3°F-3.2°C 17.2°F-8.2°C 68% Calm Calm -- 30.26 in1024.7 mb - 0.00 in0.0 mm 0.00 in0.0 mm
08:20 PM 26.4°F-3.1°C 17.3°F-8.2°C 68% Calm Calm -- 30.27 in1025.1 mb - 0.00 in0.0 mm 0.00 in0.0 mm
08:30 PM 26.6°F-3.0°C 17.1°F-8.3°C 67% Calm Calm -- 30.26 in1024.7 mb - 0.00 in0.0 mm 0.00 in0.0 mm
08:40 PM 26.7°F-2.9°C 18.2°F-7.7°C 70% Calm Calm -- 30.27 in1025.1 mb - 0.00 in0.0 mm 0.00 in0.0 mm
08:50 PM 26.7°F-2.9°C 17.9°F-7.8°C 69% Calm Calm -- 30.26 in1024.7 mb - 0.00 in0.0 mm 0.00 in0.0 mm
09:00 PM 26.7°F-2.9°C 17.5°F-8.1°C 68% Calm Calm -- 30.27 in1025.1 mb - 0.00 in0.0 mm 0.00 in0.0 mm
09:10 PM 26.6°F-3.0°C 18.1°F-7.7°C 70% Calm Calm -- 30.27 in1025.1 mb - 0.00 in0.0 mm 0.00 in0.0 mm
09:20 PM 26.5°F-3.1°C 18.1°F-7.7°C 70% Calm Calm -- 30.27 in1025.1 mb - 0.00 in0.0 mm 0.00 in0.0 mm
09:30 PM 26.5°F-3.1°C 18.0°F-7.8°C 70% Calm Calm -- 30.27 in1025.1 mb - 0.00 in0.0 mm 0.00 in0.0 mm
09:40 PM 26.5°F-3.1°C 18.4°F-7.6°C 71% Calm Calm -- 30.27 in1025.1 mb - 0.00 in0.0 mm 0.00 in0.0 mm
09:50 PM 26.5°F-3.1°C 18.7°F-7.4°C 72% Calm Calm -- 30.27 in1025.1 mb - 0.00 in0.0 mm 0.00 in0.0 mm
10:00 PM 26.6°F-3.0°C 19.7°F-6.8°C 75% Calm Calm -- 30.27 in1025.1 mb - 0.00 in0.0 mm 0.00 in0.0 mm
10:10 PM 26.7°F-2.9°C 18.2°F-7.7°C 70% Calm Calm -- 30.27 in1025.1 mb - 0.00 in0.0 mm 0.00 in0.0 mm
10:20 PM 27.0°F-2.8°C 17.8°F-7.9°C 68% 2.3 mph N3.7 kmh N 12.7 mph20.4 kmh 30.27 in1025.1 mb - 0.00 in0.0 mm 0.00 in0.0 mm
10:30 PM 27.8°F-2.3°C 17.9°F-7.8°C 66% Calm Calm -- 30.28 in1025.4 mb - 0.00 in0.0 mm 0.00 in0.0 mm
10:40 PM 28.3°F-2.1°C 18.0°F-7.8°C 65% Calm Calm -- 30.28 in1025.4 mb - 0.00 in0.0 mm 0.00 in0.0 mm
10:50 PM 28.8°F-1.8°C 19.2°F-7.1°C 67% Calm Calm -- 30.28 in1025.4 mb - 0.00 in0.0 mm 0.00 in0.0 mm
11:00 PM 29.1°F-1.6°C 19.5°F-6.9°C 67% Calm Calm -- 30.28 in1025.4 mb - 0.00 in0.0 mm 0.00 in0.0 mm
11:10 PM 29.2°F-1.6°C 18.9°F-7.3°C 65% 5.8 mph N9.3 kmh N 4.6 mph7.4 kmh 30.28 in1025.4 mb - 0.00 in0.0 mm 0.00 in0.0 mm
11:20 PM 29.3°F-1.5°C 18.2°F-7.7°C 63% 3.5 mph NNW5.6 kmh NNW 9.2 mph14.8 kmh 30.28 in1025.4 mb - 0.00 in0.0 mm 0.00 in0.0 mm
11:30 PM 29.2°F-1.6°C 18.5°F-7.5°C 64% 1.2 mph N1.9 kmh N 8.1 mph13.0 kmh 30.28 in1025.4 mb - 0.00 in0.0 mm 0.00 in0.0 mm
11:40 PM 29.0°F-1.7°C 17.9°F-7.8°C 63% 4.6 mph NNW7.4 kmh NNW 11.5 mph18.5 kmh 30.28 in1025.4 mb - 0.00 in0.0 mm 0.00 in0.0 mm
11:50 PM 28.7°F-1.8°C 18.1°F-7.7°C 64% 5.8 mph NW9.3 kmh NW 17.3 mph27.8 kmh 30.28 in1025.4 mb - 0.00 in0.0 mm 0.00 in0.0 mm